createdAt,value
2017-10-31T00:00:09.559Z,99838.31
2017-10-31T00:02:53.947Z,99846.95
2017-10-31T00:05:26.180Z,99837.22
2017-10-31T00:08:00.609Z,99840.58
2017-10-31T00:10:33.171Z,99837.50
2017-10-31T00:13:05.299Z,99833.48
2017-10-31T00:15:36.546Z,99837.08
2017-10-31T00:18:08.218Z,99837.21
2017-10-31T00:20:39.224Z,99837.49
2017-10-31T00:23:10.244Z,99837.69
2017-10-31T00:25:41.701Z,99840.14
2017-10-31T00:28:12.887Z,99838.73
2017-10-31T00:30:43.776Z,99840.23
2017-10-31T00:33:14.986Z,99838.53
2017-10-31T00:35:49.235Z,99843.16
2017-10-31T00:38:21.666Z,99840.19
2017-10-31T00:40:54.226Z,99838.29
2017-10-31T00:43:25.384Z,99837.34
2017-10-31T00:45:56.316Z,99841.33
2017-10-31T00:48:30.691Z,99843.20
2017-10-31T00:51:01.369Z,99839.23
2017-10-31T00:53:32.295Z,99839.80
2017-10-31T00:56:03.075Z,99837.12
2017-10-31T00:58:34.118Z,99843.41
2017-10-31T01:01:04.721Z,99845.91
2017-10-31T01:03:36.205Z,99842.09
2017-10-31T01:06:06.884Z,99843.92
2017-10-31T01:08:37.680Z,99851.28
2017-10-31T01:11:08.184Z,99842.61
2017-10-31T01:13:39.259Z,99843.59
2017-10-31T01:16:10.140Z,99848.41
2017-10-31T01:18:41.132Z,99844.25
2017-10-31T01:21:12.141Z,99847.43
2017-10-31T01:23:43.019Z,99837.45
2017-10-31T01:26:13.891Z,99845.30
2017-10-31T01:28:47.852Z,99836.78
2017-10-31T01:31:19.523Z,99839.91
2017-10-31T01:33:53.653Z,99835.48
2017-10-31T01:36:30.897Z,99835.09
2017-10-31T01:39:03.126Z,99837.31
2017-10-31T01:41:34.883Z,99827.55
2017-10-31T01:44:08.125Z,99829.27
2017-10-31T01:46:38.797Z,99830.08
2017-10-31T01:49:09.760Z,99828.70
2017-10-31T01:51:40.915Z,99831.92
2017-10-31T01:54:11.917Z,99832.77
2017-10-31T01:56:42.721Z,99832.20
2017-10-31T01:59:13.564Z,99834.00
2017-10-31T02:01:55.056Z,99832.72
2017-10-31T02:04:26.677Z,99828.90
2017-10-31T02:06:57.189Z,99820.41
2017-10-31T02:09:28.287Z,99821.45
2017-10-31T02:12:01.482Z,99824.00
2017-10-31T02:14:32.915Z,99818.89
2017-10-31T02:17:03.957Z,99825.13
2017-10-31T02:19:36.261Z,99823.56
2017-10-31T02:22:07.184Z,99828.84
2017-10-31T02:24:38.811Z,99822.95
2017-10-31T02:27:09.744Z,99816.71
2017-10-31T02:29:49.942Z,99821.49
2017-10-31T02:32:21.022Z,99823.03
2017-10-31T02:34:53.135Z,99809.11
2017-10-31T02:37:24.057Z,99810.15
2017-10-31T02:39:54.760Z,99812.60
2017-10-31T02:42:26.073Z,99823.59
2017-10-31T02:44:57.295Z,99822.45
2017-10-31T02:47:28.175Z,99822.50
2017-10-31T02:49:59.172Z,99827.36
2017-10-31T02:52:33.051Z,99817.64
2017-10-31T02:55:04.842Z,99825.02
2017-10-31T02:57:37.908Z,99820.42
2017-10-31T03:00:11.012Z,99819.72
2017-10-31T03:02:44.394Z,99823.07
2017-10-31T03:05:28.455Z,99823.44
2017-10-31T03:07:59.285Z,99825.57
2017-10-31T03:10:30.240Z,99826.92
2017-10-31T03:13:01.699Z,99825.78
2017-10-31T03:15:33.203Z,99825.13
2017-10-31T03:18:07.065Z,99829.66
2017-10-31T03:20:39.843Z,99825.87
2017-10-31T03:23:11.772Z,99823.30
2017-10-31T03:25:43.321Z,99828.98
2017-10-31T03:28:14.727Z,99829.69
2017-10-31T03:33:22.534Z,99824.68
2017-10-31T03:35:53.331Z,99827.62
2017-10-31T03:38:24.299Z,99827.88
2017-10-31T03:40:55.069Z,99832.39
2017-10-31T03:43:26.122Z,99831.31
2017-10-31T03:45:56.950Z,99830.41
2017-10-31T03:48:27.674Z,99830.75
2017-10-31T03:50:58.830Z,99827.15
2017-10-31T03:53:30.871Z,99830.17
2017-10-31T03:56:02.363Z,99831.06
2017-10-31T03:58:33.244Z,99827.80
2017-10-31T04:01:03.955Z,99832.16
2017-10-31T04:03:34.634Z,99828.20
2017-10-31T04:06:05.614Z,99835.56
2017-10-31T04:08:36.405Z,99834.77
2017-10-31T04:11:07.315Z,99837.11
2017-10-31T04:13:38.317Z,99833.54
2017-10-31T04:16:11.587Z,99832.13
2017-10-31T04:18:42.409Z,99833.83
2017-10-31T04:21:13.584Z,99836.89
2017-10-31T04:23:44.489Z,99829.53
2017-10-31T04:26:16.035Z,99830.20
2017-10-31T04:28:49.789Z,99829.88
2017-10-31T04:31:21.433Z,99826.37
2017-10-31T04:33:53.502Z,99821.89
2017-10-31T04:36:24.163Z,99822.28
2017-10-31T04:38:54.709Z,99830.59
2017-10-31T04:41:27.357Z,99824.33
2017-10-31T04:43:59.668Z,99827.13
2017-10-31T04:46:30.434Z,99817.98
2017-10-31T04:49:01.382Z,99828.12
2017-10-31T04:51:32.297Z,99828.84
2017-10-31T04:54:03.303Z,99827.18
2017-10-31T04:56:34.307Z,99825.02
2017-10-31T04:59:05.344Z,99825.56
2017-10-31T05:01:35.895Z,99830.25
2017-10-31T05:04:07.026Z,99827.95
2017-10-31T05:06:37.827Z,99826.16
2017-10-31T05:09:08.685Z,99826.88
2017-10-31T05:11:41.698Z,99823.78
2017-10-31T05:14:12.509Z,99832.41
2017-10-31T05:16:43.626Z,99832.42
2017-10-31T05:19:14.465Z,99832.97
2017-10-31T05:21:49.983Z,99832.67
2017-10-31T05:24:21.397Z,99833.44
2017-10-31T05:26:53.291Z,99829.66
2017-10-31T05:29:26.183Z,99825.52
2017-10-31T05:31:56.822Z,99826.50
2017-10-31T05:34:27.585Z,99826.45
2017-10-31T05:36:58.986Z,99828.92
2017-10-31T05:39:30.167Z,99827.91
2017-10-31T05:42:01.327Z,99831.19
2017-10-31T05:44:34.247Z,99830.72
2017-10-31T05:47:06.580Z,99828.20
2017-10-31T05:49:37.569Z,99836.42
2017-10-31T05:52:11.321Z,99828.30
2017-10-31T05:54:52.741Z,99835.57
2017-10-31T05:57:27.371Z,99836.42
2017-10-31T06:00:06.302Z,99842.25
2017-10-31T06:02:37.900Z,99839.36
2017-10-31T06:05:10.185Z,99850.47
2017-10-31T06:07:44.769Z,99857.45
2017-10-31T06:10:18.023Z,99852.39
2017-10-31T06:12:57.511Z,99858.48
2017-10-31T06:15:42.630Z,99862.86
2017-10-31T06:18:14.497Z,99867.29
2017-10-31T06:21:02.105Z,99869.42
2017-10-31T06:25:40.411Z,99867.41
2017-10-31T06:30:22.610Z,99877.42
2017-10-31T06:32:54.690Z,99879.97
2017-10-31T06:35:25.673Z,99880.96
2017-10-31T06:37:57.532Z,99885.67
2017-10-31T06:40:30.205Z,99884.95
2017-10-31T06:43:00.993Z,99889.42
2017-10-31T06:45:31.964Z,99898.92
2017-10-31T06:48:03.221Z,99896.78
2017-10-31T06:50:35.322Z,99894.56
2017-10-31T06:53:06.454Z,99893.33
2017-10-31T06:55:38.352Z,99894.40
2017-10-31T06:58:10.354Z,99891.59
2017-10-31T07:00:42.172Z,99897.77
2017-10-31T07:03:12.962Z,99903.25
2017-10-31T07:05:49.080Z,99902.63
2017-10-31T07:08:23.290Z,99912.45
2017-10-31T07:10:55.421Z,99910.24
2017-10-31T07:13:26.295Z,99907.90
2017-10-31T07:16:00.441Z,99909.22
2017-10-31T07:18:33.268Z,99904.19
2017-10-31T07:21:05.299Z,99901.25
2017-10-31T07:23:38.056Z,99904.73
2017-10-31T07:26:10.718Z,99895.27
2017-10-31T07:28:43.692Z,99897.73
2017-10-31T07:31:14.914Z,99901.47
2017-10-31T07:33:51.689Z,99899.53
2017-10-31T07:36:22.942Z,99898.95
2017-10-31T07:38:54.100Z,99902.28
2017-10-31T07:41:26.735Z,99906.03
2017-10-31T07:44:03.202Z,99902.17
2017-10-31T07:49:12.862Z,99899.09
2017-10-31T07:51:51.025Z,99898.79
2017-10-31T07:54:25.656Z,99903.39
2017-10-31T07:56:57.528Z,99903.80
2017-10-31T07:59:42.475Z,99903.00
2017-10-31T08:02:24.567Z,99894.02
2017-10-31T08:04:57.661Z,99899.99
2017-10-31T08:07:29.215Z,99903.26
2017-10-31T08:10:00.664Z,99896.31
2017-10-31T08:12:33.830Z,99894.16
2017-10-31T08:15:05.726Z,99893.98
2017-10-31T08:17:43.697Z,99894.36
2017-10-31T08:20:17.192Z,99901.31
2017-10-31T08:22:53.115Z,99901.78
2017-10-31T08:25:25.735Z,99898.47
2017-10-31T08:27:58.865Z,99901.78
2017-10-31T08:30:31.803Z,99895.69
2017-10-31T08:33:04.994Z,99896.28
2017-10-31T08:35:37.271Z,99891.09
2017-10-31T08:38:10.366Z,99897.33
2017-10-31T08:40:49.997Z,99894.25
2017-10-31T08:43:23.263Z,99893.44
2017-10-31T08:46:11.930Z,99892.50
2017-10-31T08:48:49.403Z,99883.86
2017-10-31T08:51:23.415Z,99885.27
2017-10-31T08:53:55.626Z,99891.39
2017-10-31T08:56:28.651Z,99894.34
2017-10-31T08:59:00.341Z,99896.58
2017-10-31T09:01:33.374Z,99897.78
2017-10-31T09:04:05.188Z,99900.08
2017-10-31T09:06:37.502Z,99903.75
2017-10-31T09:09:12.640Z,99901.32
2017-10-31T09:11:49.593Z,99902.27
2017-10-31T09:14:22.517Z,99898.66
2017-10-31T09:16:57.304Z,99904.41
2017-10-31T09:19:31.244Z,99900.69
2017-10-31T09:22:02.731Z,99901.02
2017-10-31T09:24:37.005Z,99908.99
2017-10-31T09:27:13.084Z,99903.94
2017-10-31T09:29:50.150Z,99906.61
2017-10-31T09:32:23.781Z,99912.87
2017-10-31T09:34:58.488Z,99915.23
2017-10-31T09:37:31.891Z,99910.28
2017-10-31T09:40:04.089Z,99904.86
2017-10-31T09:42:37.352Z,99912.78
2017-10-31T09:45:11.156Z,99904.23
2017-10-31T09:47:49.111Z,99904.19
2017-10-31T09:50:24.230Z,99906.48
2017-10-31T09:52:57.749Z,99898.61
2017-10-31T09:55:30.796Z,99908.92
2017-10-31T09:58:03.740Z,99907.53
2017-10-31T10:00:36.875Z,99911.89
2017-10-31T10:03:10.384Z,99907.27
2017-10-31T10:05:42.904Z,99903.41
2017-10-31T10:08:15.421Z,99905.84
2017-10-31T10:10:51.049Z,99902.80
2017-10-31T10:13:24.255Z,99898.20
2017-10-31T10:15:57.666Z,99901.23
2017-10-31T10:18:31.053Z,99898.00
2017-10-31T10:21:04.258Z,99888.22
2017-10-31T10:23:35.493Z,99892.09
2017-10-31T10:26:09.026Z,99894.59
2017-10-31T10:28:40.857Z,99897.84
2017-10-31T10:31:15.272Z,99890.95
2017-10-31T10:33:47.181Z,99882.31
2017-10-31T10:36:19.623Z,99884.88
2017-10-31T10:38:53.323Z,99882.53
2017-10-31T10:41:26.846Z,99886.51
2017-10-31T10:43:59.505Z,99885.40
2017-10-31T10:46:32.577Z,99887.02
2017-10-31T10:49:05.561Z,99878.80
2017-10-31T10:51:37.635Z,99875.03
2017-10-31T10:54:08.926Z,99871.52
2017-10-31T10:56:39.816Z,99864.58
2017-10-31T10:59:12.192Z,99868.58
2017-10-31T11:01:44.877Z,99859.86
2017-10-31T11:04:16.568Z,99859.81
2017-10-31T11:06:49.057Z,99863.99
2017-10-31T11:09:20.517Z,99861.03
2017-10-31T11:11:55.777Z,99865.06
2017-10-31T11:14:29.393Z,99856.85
2017-10-31T11:17:00.445Z,99857.14
2017-10-31T11:19:32.323Z,99860.28
2017-10-31T11:22:04.063Z,99853.52
2017-10-31T11:24:34.847Z,99852.09
2017-10-31T11:27:05.188Z,99850.63
2017-10-31T11:29:36.314Z,99845.06
2017-10-31T11:32:09.068Z,99849.05
2017-10-31T11:34:40.483Z,99844.83
2017-10-31T11:37:11.157Z,99842.59
2017-10-31T11:39:42.776Z,99838.39
2017-10-31T11:42:14.448Z,99832.82
2017-10-31T11:44:48.895Z,99844.13
2017-10-31T11:47:21.134Z,99836.62
2017-10-31T11:49:53.473Z,99837.14
2017-10-31T11:52:24.206Z,99835.44
2017-10-31T11:54:59.075Z,99837.47
2017-10-31T11:57:30.632Z,99832.72
2017-10-31T12:00:02.131Z,99836.97
2017-10-31T12:02:33.422Z,99828.08
2017-10-31T12:05:05.951Z,99833.73
2017-10-31T12:07:38.038Z,99833.25
2017-10-31T12:10:14.836Z,99833.53
2017-10-31T12:12:50.351Z,99827.94
2017-10-31T12:15:21.820Z,99834.76
2017-10-31T12:17:55.185Z,99830.64
2017-10-31T12:20:31.692Z,99832.66
2017-10-31T12:23:03.177Z,99827.02
2017-10-31T12:25:35.899Z,99831.14
2017-10-31T12:28:11.847Z,99830.52
2017-10-31T12:30:43.569Z,99824.77
2017-10-31T12:33:19.100Z,99828.22
2017-10-31T12:35:53.568Z,99827.22
2017-10-31T12:38:25.295Z,99828.51
2017-10-31T12:40:56.416Z,99825.96
2017-10-31T12:43:27.604Z,99823.13
2017-10-31T12:46:00.266Z,99818.05
2017-10-31T12:48:31.824Z,99811.84
2017-10-31T12:51:04.443Z,99810.19
2017-10-31T12:53:35.629Z,99811.15
2017-10-31T12:56:10.048Z,99807.30
2017-10-31T12:58:40.963Z,99807.44
2017-10-31T13:01:17.209Z,99806.55
2017-10-31T13:03:53.640Z,99801.64
2017-10-31T13:06:26.053Z,99800.28
2017-10-31T13:08:57.544Z,99801.24
2017-10-31T13:11:30.090Z,99797.44
2017-10-31T13:14:02.011Z,99802.38
2017-10-31T13:16:33.263Z,99802.00
2017-10-31T13:19:06.023Z,99804.93
2017-10-31T13:21:38.525Z,99797.66
2017-10-31T13:24:09.396Z,99796.48
2017-10-31T13:26:43.553Z,99795.94
2017-10-31T13:29:25.297Z,99789.80
2017-10-31T13:31:58.068Z,99790.70
2017-10-31T13:34:34.497Z,99793.30
2017-10-31T13:37:18.471Z,99787.30
2017-10-31T13:40:02.955Z,99786.95
2017-10-31T13:42:40.069Z,99787.44
2017-10-31T13:45:11.777Z,99784.00
2017-10-31T13:47:44.219Z,99777.32
2017-10-31T13:50:16.404Z,99781.25
2017-10-31T13:52:50.670Z,99774.84
2017-10-31T13:55:30.004Z,99780.16
2017-10-31T13:58:01.424Z,99777.85
2017-10-31T14:00:36.236Z,99779.78
2017-10-31T14:03:11.890Z,99777.30
2017-10-31T14:05:49.431Z,99783.98
2017-10-31T14:08:23.555Z,99777.09
2017-10-31T14:11:00.081Z,99772.27
2017-10-31T14:13:32.581Z,99777.05
2017-10-31T14:16:06.861Z,99780.08
2017-10-31T14:18:42.811Z,99782.31
2017-10-31T14:21:24.061Z,99781.72
2017-10-31T14:23:56.437Z,99784.62
2017-10-31T14:26:28.295Z,99778.41
2017-10-31T14:29:01.505Z,99772.67
2017-10-31T14:31:36.486Z,99772.45
2017-10-31T14:34:15.500Z,99772.08
2017-10-31T14:36:55.392Z,99767.98
2017-10-31T14:39:29.028Z,99761.58
2017-10-31T14:42:06.319Z,99763.94
2017-10-31T14:44:41.022Z,99763.56
2017-10-31T14:47:12.465Z,99765.05
2017-10-31T14:49:43.438Z,99762.82
2017-10-31T14:52:15.664Z,99756.05
2017-10-31T14:58:27.232Z,99750.98
2017-10-31T15:01:00.442Z,99751.56
2017-10-31T15:03:35.124Z,99756.69
2017-10-31T15:06:09.007Z,99752.95
2017-10-31T15:08:41.315Z,99749.58
2017-10-31T15:14:14.575Z,99749.33
2017-10-31T15:16:57.928Z,99748.21
2017-10-31T15:22:38.509Z,99740.97
2017-10-31T15:25:12.731Z,99740.57
2017-10-31T15:27:46.914Z,99734.09
2017-10-31T15:30:19.492Z,99734.44
2017-10-31T15:32:56.034Z,99731.03
2017-10-31T15:35:38.180Z,99724.80
2017-10-31T15:38:38.385Z,99727.27
2017-10-31T15:41:31.115Z,99732.26
2017-10-31T15:44:03.732Z,99721.59
2017-10-31T15:46:39.338Z,99726.34
2017-10-31T15:49:11.542Z,99726.17
2017-10-31T15:51:50.273Z,99726.73
2017-10-31T15:54:27.181Z,99721.53
2017-10-31T15:57:02.505Z,99725.94
2017-10-31T15:59:35.989Z,99721.77
2017-10-31T16:02:17.677Z,99730.58
2017-10-31T16:04:52.932Z,99724.84
2017-10-31T16:07:30.930Z,99724.28
2017-10-31T16:19:33.013Z,99733.16
2017-10-31T16:22:10.674Z,99737.02
2017-10-31T16:24:51.946Z,99740.09
2017-10-31T16:27:27.592Z,99735.31
2017-10-31T16:30:00.900Z,99734.64
2017-10-31T16:33:08.944Z,99738.45
2017-10-31T16:35:52.869Z,99738.20
2017-10-31T16:41:16.449Z,99736.66
2017-10-31T16:43:55.688Z,99739.95
2017-10-31T16:46:27.605Z,99739.86
2017-10-31T16:49:04.200Z,99739.55
2017-10-31T16:51:41.402Z,99738.47
2017-10-31T16:54:17.488Z,99750.09
2017-10-31T16:59:42.073Z,99753.95
2017-10-31T17:02:25.315Z,99750.77
2017-10-31T17:07:44.828Z,99748.39
2017-10-31T17:16:14.549Z,99749.78
2017-10-31T17:18:51.726Z,99757.87
2017-10-31T17:21:42.827Z,99747.28
2017-10-31T17:24:58.127Z,99760.70
2017-10-31T17:27:35.843Z,99758.91
2017-10-31T17:35:49.572Z,99758.89
2017-10-31T17:38:50.784Z,99761.66
2017-10-31T17:41:23.707Z,99763.78
2017-10-31T17:50:00.625Z,99765.59
2017-10-31T17:59:28.700Z,99749.45
2017-10-31T18:02:12.260Z,99733.77
2017-10-31T18:04:52.221Z,99731.65
2017-10-31T18:07:29.184Z,99729.20
2017-10-31T18:10:36.320Z,99733.83
2017-10-31T18:13:37.081Z,99731.70
2017-10-31T18:19:24.563Z,99733.41
2017-10-31T18:21:58.022Z,99734.71
2017-10-31T18:24:30.036Z,99732.15
2017-10-31T18:27:01.081Z,99732.93
2017-10-31T18:29:32.857Z,99726.42
2017-10-31T18:32:04.837Z,99724.63
2017-10-31T18:34:41.117Z,99730.88
2017-10-31T18:37:17.518Z,99727.64
2017-10-31T18:39:58.280Z,99726.10
2017-10-31T18:45:30.951Z,99730.82
2017-10-31T18:48:04.126Z,99726.10
2017-10-31T18:50:36.535Z,99724.98
2017-10-31T18:53:09.083Z,99718.80
2017-10-31T18:58:22.206Z,99714.97
2017-10-31T19:00:58.624Z,99714.27
2017-10-31T19:03:35.668Z,99709.97
2017-10-31T19:06:13.835Z,99703.77
2017-10-31T19:08:46.297Z,99706.42
2017-10-31T19:11:21.273Z,99702.94
2017-10-31T19:13:57.711Z,99702.72
2017-10-31T19:16:31.730Z,99699.49
2017-10-31T19:19:11.171Z,99698.70
2017-10-31T19:21:43.611Z,99693.07
2017-10-31T19:24:20.511Z,99690.74
2017-10-31T19:26:56.496Z,99688.72
2017-10-31T19:29:36.854Z,99684.97
2017-10-31T19:32:14.328Z,99687.45
2017-10-31T19:34:50.350Z,99681.80
2017-10-31T19:37:31.289Z,99681.90
2017-10-31T20:25:32.456Z,99686.02
2017-10-31T20:28:08.131Z,99684.07
2017-10-31T20:30:43.470Z,99684.81
2017-10-31T20:35:56.652Z,99684.07
2017-10-31T20:38:29.643Z,99676.49
2017-10-31T20:41:03.324Z,99680.83
2017-10-31T20:43:52.014Z,99684.44
2017-10-31T20:46:25.819Z,99684.70
2017-10-31T20:49:00.756Z,99676.84
2017-10-31T20:51:36.858Z,99677.22
2017-10-31T20:54:07.808Z,99668.64
2017-10-31T20:56:40.485Z,99667.09
2017-10-31T20:59:19.178Z,99663.81
2017-10-31T21:01:51.413Z,99662.01
2017-10-31T21:04:27.130Z,99661.64
2017-10-31T21:07:01.422Z,99660.58
2017-10-31T21:09:33.493Z,99654.11
2017-10-31T21:12:06.887Z,99655.48
2017-10-31T21:14:41.950Z,99659.50
2017-10-31T21:17:14.433Z,99657.33
2017-10-31T21:19:50.826Z,99656.38
2017-10-31T21:22:23.487Z,99642.33
2017-10-31T21:24:54.865Z,99646.14
2017-10-31T21:27:31.202Z,99638.98
2017-10-31T21:30:10.082Z,99642.80
2017-10-31T21:35:42.370Z,99633.21
2017-10-31T21:38:13.951Z,99637.72
2017-10-31T21:40:46.054Z,99632.31
2017-10-31T21:43:17.251Z,99630.88
2017-10-31T21:45:48.350Z,99630.93
2017-10-31T21:48:21.151Z,99624.70
2017-10-31T21:50:53.978Z,99629.53
2017-10-31T21:53:25.950Z,99631.88
2017-10-31T21:55:57.582Z,99625.38
2017-10-31T21:58:29.351Z,99623.25
2017-10-31T22:01:00.968Z,99620.71
2017-10-31T22:03:32.053Z,99614.40
2017-10-31T22:06:03.761Z,99617.60
2017-10-31T22:08:34.881Z,99619.55
2017-10-31T22:11:09.956Z,99616.58
2017-10-31T22:13:44.420Z,99619.00
2017-10-31T22:16:16.127Z,99617.60
2017-10-31T22:18:58.124Z,99611.45
2017-10-31T22:21:29.575Z,99612.59
2017-10-31T22:24:02.126Z,99608.25
2017-10-31T22:26:33.328Z,99607.55
2017-10-31T22:29:04.660Z,99610.42
2017-10-31T22:31:36.005Z,99612.80
2017-10-31T22:34:10.691Z,99605.97
2017-10-31T22:36:43.845Z,99608.56
2017-10-31T22:39:23.012Z,99613.50
2017-10-31T22:41:58.286Z,99602.84
2017-10-31T22:44:29.032Z,99609.13
2017-10-31T22:47:00.723Z,99602.05
2017-10-31T22:49:31.680Z,99603.16
2017-10-31T22:52:05.574Z,99603.91
2017-10-31T22:54:36.430Z,99602.67
2017-10-31T22:57:11.469Z,99597.73
2017-10-31T22:59:42.266Z,99598.81
2017-10-31T23:02:16.345Z,99596.64
2017-10-31T23:04:50.015Z,99596.85
2017-10-31T23:07:27.154Z,99592.89
2017-10-31T23:09:57.993Z,99591.33
2017-10-31T23:12:29.058Z,99591.85
2017-10-31T23:14:59.799Z,99577.41
2017-10-31T23:17:31.228Z,99585.17
2017-10-31T23:20:02.891Z,99576.32
2017-10-31T23:22:36.638Z,99573.01
2017-10-31T23:25:10.640Z,99563.66
2017-10-31T23:27:41.880Z,99575.36
2017-10-31T23:30:12.964Z,99563.65
2017-10-31T23:32:43.654Z,99569.00
2017-10-31T23:35:15.131Z,99552.57
2017-10-31T23:37:47.440Z,99552.83
2017-10-31T23:40:19.949Z,99561.00
2017-10-31T23:42:55.075Z,99550.52
2017-10-31T23:45:25.958Z,99547.98
2017-10-31T23:47:57.086Z,99552.99
2017-10-31T23:50:29.490Z,99548.72
2017-10-31T23:53:00.402Z,99552.44
2017-10-31T23:55:31.578Z,99547.72
2017-10-31T23:58:02.390Z,99549.47
